Time;durP1;ratioP1;P1;durP2;ratioP2;P2;SDS_P1;SDS_P2;PMS_P1;PMS_P2;Temp;Humidity;BMP_temperature;BMP_pressure;BME280_temperature;BME280_humidity;BME280_pressure;Samples;Min_cycle;Max_cycle;Signal;HPM_P1;HPM_P2
2021/11/06 00:02:16;;;;;;;75.60;38.92;;;;;;;3.55;100.00;102730.78;5063446;28;20037;-62
2021/11/06 00:04:41;;;;;;;74.13;38.45;;;;;;;3.53;100.00;102727.19;5065359;28;20090;-63
2021/11/06 00:07:07;;;;;;;72.10;39.10;;;;;;;3.53;100.00;102724.56;5063049;28;20052;-70
2021/11/06 00:09:32;;;;;;;77.45;39.70;;;;;;;3.53;100.00;102733.31;5065642;28;20155;-71
2021/11/06 00:11:58;;;;;;;80.30;40.92;;;;;;;3.58;100.00;102733.59;5063912;28;20107;-70
2021/11/06 00:14:23;;;;;;;78.22;39.38;;;;;;;3.56;100.00;102728.25;5064443;28;20029;-71
2021/11/06 00:16:48;;;;;;;74.40;40.00;;;;;;;3.55;100.00;102728.16;5065509;28;20471;-71
2021/11/06 00:19:14;;;;;;;73.63;40.35;;;;;;;3.49;100.00;102729.59;5063218;28;20025;-71
2021/11/06 00:21:39;;;;;;;76.32;39.42;;;;;;;3.47;100.00;102730.31;5066218;28;20047;-73
2021/11/06 00:24:04;;;;;;;78.43;41.30;;;;;;;3.42;100.00;102716.94;5062820;28;20396;-71
2021/11/06 00:26:30;;;;;;;72.55;40.38;;;;;;;3.43;100.00;102716.13;5065348;28;20021;-73
2021/11/06 00:28:55;;;;;;;72.75;40.97;;;;;;;3.44;100.00;102717.03;5064281;28;20017;-70
2021/11/06 00:31:21;;;;;;;69.88;39.85;;;;;;;3.43;100.00;102717.84;5063582;28;20104;-76
2021/11/06 00:33:46;;;;;;;75.30;40.55;;;;;;;3.35;100.00;102719.97;5065878;28;20028;-72
2021/11/06 00:36:11;;;;;;;70.70;41.40;;;;;;;3.33;100.00;102721.56;5062734;28;20079;-75
2021/11/06 00:38:36;;;;;;;73.53;40.83;;;;;;;3.37;100.00;102714.84;5064709;28;20035;-73
2021/11/06 00:41:02;;;;;;;73.28;40.78;;;;;;;3.37;100.00;102713.13;5062919;28;20032;-74
2021/11/06 00:43:27;;;;;;;70.65;40.65;;;;;;;3.33;100.00;102721.56;5064248;28;20025;-74
2021/11/06 00:45:53;;;;;;;67.47;39.60;;;;;;;3.37;100.00;102723.59;5064433;28;20031;-76
2021/11/06 00:48:18;;;;;;;63.63;39.47;;;;;;;3.32;100.00;102714.56;5062983;28;20112;-77
2021/11/06 00:50:43;;;;;;;63.20;38.30;;;;;;;3.33;100.00;102716.34;5065544;28;20116;-74
2021/11/06 00:53:08;;;;;;;63.40;40.47;;;;;;;3.30;100.00;102710.91;5062474;28;20053;-76
2021/11/06 00:55:34;;;;;;;63.15;39.42;;;;;;;3.22;100.00;102717.34;5064848;28;20385;-61
2021/11/06 00:57:59;;;;;;;63.90;40.03;;;;;;;3.19;100.00;102718.09;5063323;28;20537;-61
2021/11/06 01:00:25;;;;;;;62.15;40.78;;;;;;;3.13;100.00;102717.66;5063590;28;20029;-61
2021/11/06 01:02:50;;;;;;;69.88;41.78;;;;;;;3.13;100.00;102715.97;5064368;28;20024;-64
2021/11/06 01:05:17;;;;;;;62.75;40.70;;;;;;;3.12;100.00;102716.78;5062228;28;20039;-61
2021/11/06 01:07:43;;;;;;;60.05;40.08;;;;;;;3.16;100.00;102722.19;5065415;28;20523;-61
2021/11/06 01:10:11;;;;;;;61.50;41.28;;;;;;;3.15;100.00;102721.31;5061727;28;20124;-64
2021/11/06 01:12:36;;;;;;;61.13;40.78;;;;;;;3.12;100.00;102716.78;5064750;28;20078;-61
2021/11/06 01:15:03;;;;;;;62.28;41.85;;;;;;;3.13;100.00;102722.91;5062317;28;20115;-62
2021/11/06 01:17:29;;;;;;;62.03;40.20;;;;;;;3.13;100.00;102720.28;5063813;28;20035;-72
2021/11/06 01:19:54;;;;;;;62.80;41.05;;;;;;;3.11;100.00;102720.19;5063439;28;20039;-61
2021/11/06 01:22:19;;;;;;;61.22;39.97;;;;;;;3.10;100.00;102715.78;5062477;28;20095;-61
2021/11/06 01:24:45;;;;;;;59.10;40.97;;;;;;;3.09;100.00;102729.66;5064476;28;20049;-61
2021/11/06 01:27:10;;;;;;;60.08;40.97;;;;;;;3.12;100.00;102722.00;5061354;28;20025;-61
2021/11/06 01:29:37;;;;;;;60.17;40.92;;;;;;;3.02;100.00;102721.31;5064479;28;20384;-62
2021/11/06 01:32:04;;;;;;;58.42;41.58;;;;;;;3.00;100.00;102721.22;5062195;28;20029;-61
2021/11/06 01:34:29;;;;;;;59.50;41.00;;;;;;;2.99;100.00;102715.91;5063213;28;20171;-72
2021/11/06 01:36:55;;;;;;;64.60;41.75;;;;;;;2.99;100.00;102719.41;5063337;28;20103;-64
2021/11/06 01:39:20;;;;;;;61.65;41.50;;;;;;;2.96;100.00;102724.44;5062077;28;20561;-75
2021/11/06 01:41:45;;;;;;;60.38;42.58;;;;;;;2.93;100.00;102717.28;5064510;28;20027;-74
2021/11/06 01:44:11;;;;;;;63.15;41.67;;;;;;;2.93;100.00;102719.00;5061026;28;20017;-73
2021/11/06 01:46:36;;;;;;;55.95;39.67;;;;;;;2.98;100.00;102720.19;5063979;28;20043;-75
2021/11/06 01:49:02;;;;;;;61.97;41.92;;;;;;;2.93;100.00;102719.00;5062170;28;20434;-76
2021/11/06 01:51:27;;;;;;;58.78;41.55;;;;;;;2.95;100.00;102717.38;5062639;28;20021;-62
2021/11/06 01:53:53;;;;;;;57.80;41.47;;;;;;;2.93;100.00;102711.19;5063120;28;20517;-62
2021/11/06 01:56:19;;;;;;;58.97;41.88;;;;;;;2.87;100.00;102716.91;5062092;28;20027;-62
2021/11/06 01:58:45;;;;;;;57.72;41.55;;;;;;;2.84;100.00;102710.56;5064134;28;20020;-61
2021/11/06 02:01:10;;;;;;;59.13;41.50;;;;;;;2.86;100.00;102709.84;5061099;28;20087;-61
2021/11/06 02:03:36;;;;;;;60.40;40.85;;;;;;;2.87;100.00;102705.53;5064161;28;20028;-61
2021/11/06 02:06:02;;;;;;;58.55;40.47;;;;;;;2.85;100.00;102707.16;5061850;28;20344;-61
2021/11/06 02:08:28;;;;;;;58.50;40.80;;;;;;;2.80;100.00;102699.00;5062772;28;20386;-61
2021/11/06 02:10:53;;;;;;;55.95;39.80;;;;;;;2.83;100.00;102695.69;5063101;28;20024;-61
2021/11/06 02:13:19;;;;;;;57.15;40.67;;;;;;;2.83;100.00;102698.31;5061562;28;20029;-62
2021/11/06 02:15:45;;;;;;;60.13;39.63;;;;;;;2.88;100.00;102697.78;5064404;28;20024;-65
2021/11/06 02:18:12;;;;;;;59.00;40.85;;;;;;;2.83;100.00;102695.69;5060771;28;20025;-61
2021/11/06 02:20:38;;;;;;;56.13;39.15;;;;;;;2.79;100.00;102692.88;5064057;28;20390;-61
2021/11/06 02:23:04;;;;;;;58.72;39.88;;;;;;;2.79;100.00;102695.47;5061222;28;20047;-63
2021/11/06 02:25:29;;;;;;;60.20;40.70;;;;;;;2.78;100.00;102688.47;5062940;28;20033;-61
2021/11/06 02:27:55;;;;;;;55.78;38.00;;;;;;;2.80;100.00;102683.34;5062619;28;20025;-61
2021/11/06 02:30:21;;;;;;;55.92;38.63;;;;;;;2.84;100.00;102681.81;5061625;28;20033;-62
2021/11/06 02:32:48;;;;;;;57.42;38.65;;;;;;;2.89;100.00;102685.66;5063741;28;20024;-61
2021/11/06 02:35:15;;;;;;;55.13;37.88;;;;;;;2.82;100.00;102693.88;5060420;28;20037;-64
2021/11/06 02:37:42;;;;;;;53.40;37.55;;;;;;;2.81;100.00;102690.38;5060724;28;20539;-61
2021/11/06 02:40:09;;;;;;;52.70;36.17;;;;;;;2.83;100.00;102700.94;5062771;28;20052;-61
2021/11/06 02:42:36;;;;;;;56.22;38.05;;;;;;;2.92;100.00;102712.88;5061013;28;20645;-63
2021/11/06 02:45:03;;;;;;;53.70;37.38;;;;;;;2.88;100.00;102708.22;5062793;28;20037;-61
2021/11/06 02:47:29;;;;;;;50.53;35.45;;;;;;;2.90;100.00;102708.38;5061869;28;20032;-62
2021/11/06 02:49:54;;;;;;;54.88;37.50;;;;;;;2.90;100.00;102708.38;5061960;28;20021;-66
2021/11/06 02:52:20;;;;;;;51.75;36.40;;;;;;;2.85;100.00;102702.81;5061894;28;20479;-61
2021/11/06 02:54:45;;;;;;;53.85;37.47;;;;;;;2.84;100.00;102708.88;5060504;28;20051;-61
2021/11/06 02:57:11;;;;;;;53.15;37.20;;;;;;;2.83;100.00;102707.03;5063939;28;20025;-61
2021/11/06 02:59:37;;;;;;;51.60;36.17;;;;;;;2.84;100.00;102708.88;5061119;28;20027;-61
2021/11/06 03:02:02;;;;;;;51.40;35.92;;;;;;;2.85;100.00;102707.16;5061847;28;20085;-61
2021/11/06 03:04:35;;;;;;;53.20;35.35;;;;;;;2.93;100.00;102709.47;5065560;28;20027;-61
2021/11/06 03:07:01;;;;;;;51.92;36.33;;;;;;;2.96;100.00;102711.38;5066359;28;20029;-62
2021/11/06 03:09:26;;;;;;;50.40;35.33;;;;;;;2.99;100.00;102701.13;5064688;28;20071;-76
2021/11/06 03:11:51;;;;;;;51.08;35.15;;;;;;;3.01;100.00;102698.59;5064800;28;20099;-77
2021/11/06 03:14:18;;;;;;;47.80;33.65;;;;;;;3.02;100.00;102700.41;5067419;28;20032;-76
2021/11/06 03:16:44;;;;;;;50.80;34.60;;;;;;;3.05;100.00;102688.44;5063990;28;20033;-75
2021/11/06 03:19:09;;;;;;;51.10;35.13;;;;;;;3.08;100.00;102704.31;5067059;28;20028;-76
2021/11/06 03:21:35;;;;;;;47.55;33.15;;;;;;;3.14;100.00;102694.25;5064857;28;20028;-77
2021/11/06 03:24:00;;;;;;;49.05;36.05;;;;;;;3.23;100.00;102698.25;5065609;28;20373;-77
2021/11/06 03:26:26;;;;;;;48.22;33.33;;;;;;;3.29;100.00;102698.66;5065898;28;20028;-77
2021/11/06 03:28:51;;;;;;;47.78;33.88;;;;;;;3.34;100.00;102696.34;5064701;28;20575;-77
2021/11/06 03:31:17;;;;;;;47.47;32.90;;;;;;;3.41;100.00;102695.94;5066702;28;20551;-76
2021/11/06 03:33:42;;;;;;;46.15;31.85;;;;;;;3.48;100.00;102688.56;5063336;28;20029;-77
2021/11/06 03:36:08;;;;;;;51.88;35.78;;;;;;;3.52;100.00;102694.88;5066962;28;20162;-72
2021/11/06 03:38:33;;;;;;;45.17;31.38;;;;;;;3.61;100.00;102699.78;5064433;28;20025;-77
2021/11/06 03:40:58;;;;;;;51.85;32.35;;;;;;;3.63;100.00;102691.22;5065228;28;20029;-74
2021/11/06 03:43:24;;;;;;;47.35;32.05;;;;;;;3.71;100.00;102683.84;5065991;28;20341;-75
2021/11/06 03:45:49;;;;;;;48.13;32.10;;;;;;;3.74;100.00;102683.13;5063936;28;20048;-77
2021/11/06 03:48:14;;;;;;;45.85;30.25;;;;;;;3.75;100.00;102682.34;5066741;28;20070;-75
2021/11/06 03:50:40;;;;;;;45.22;30.55;;;;;;;3.77;100.00;102680.69;5063257;28;20095;-74
2021/11/06 03:53:06;;;;;;;46.40;31.40;;;;;;;3.81;100.00;102678.38;5066046;28;20471;-77
2021/11/06 03:55:31;;;;;;;44.58;30.40;;;;;;;3.81;100.00;102677.47;5064548;28;20033;-77
2021/11/06 03:57:57;;;;;;;46.45;30.45;;;;;;;3.86;100.00;102678.66;5064713;28;20112;-77
2021/11/06 04:00:23;;;;;;;46.90;31.00;;;;;;;3.88;100.00;102684.00;5065642;28;20020;-76
2021/11/06 04:02:49;;;;;;;43.83;29.38;;;;;;;3.89;100.00;102678.84;5063521;28;20059;-76
2021/11/06 04:05:16;;;;;;;43.53;29.20;;;;;;;3.88;100.00;102676.16;5066299;28;20390;-77
2021/11/06 04:07:42;;;;;;;47.00;30.08;;;;;;;3.86;100.00;102675.13;5062885;28;20036;-72
2021/11/06 04:10:08;;;;;;;43.42;28.15;;;;;;;3.87;100.00;102674.31;5066101;28;20028;-72
2021/11/06 04:12:35;;;;;;;43.78;29.83;;;;;;;3.86;100.00;102677.75;5063843;28;20082;-75
2021/11/06 04:15:00;;;;;;;44.05;29.00;;;;;;;3.91;100.00;102685.06;5063292;28;20037;-76
2021/11/06 04:17:25;;;;;;;45.03;29.48;;;;;;;3.82;100.00;102688.03;5064962;28;20051;-76
2021/11/06 04:19:51;;;;;;;45.83;29.88;;;;;;;3.83;100.00;102689.84;5063216;28;20135;-76
2021/11/06 04:22:16;;;;;;;42.42;28.35;;;;;;;3.89;100.00;102683.16;5066143;28;20498;-74
2021/11/06 04:24:42;;;;;;;42.35;29.00;;;;;;;3.94;100.00;102680.03;5062639;28;20370;-77
2021/11/06 04:27:08;;;;;;;41.88;27.75;;;;;;;3.96;100.00;102667.03;5065520;28;20035;-75
2021/11/06 04:29:35;;;;;;;42.25;28.85;;;;;;;3.99;100.00;102690.75;5063466;28;20024;-76
2021/11/06 04:32:01;;;;;;;44.00;29.30;;;;;;;3.94;100.00;102682.63;5064887;28;20119;-76
2021/11/06 04:34:27;;;;;;;43.17;28.13;;;;;;;3.95;100.00;102689.69;5064072;28;20487;-74
2021/11/06 04:36:52;;;;;;;42.60;28.48;;;;;;;3.96;100.00;102685.34;5063171;28;20029;-75
2021/11/06 04:39:17;;;;;;;43.05;28.50;;;;;;;3.96;100.00;102680.09;5065695;28;20017;-73
2021/11/06 04:41:42;;;;;;;41.25;26.83;;;;;;;4.00;100.00;102666.41;5062291;28;20029;-76
2021/11/06 04:44:08;;;;;;;41.15;27.05;;;;;;;4.00;100.00;102658.56;5065397;28;20016;-64
2021/11/06 04:46:33;;;;;;;42.53;28.63;;;;;;;3.91;100.00;102671.97;5063238;28;20032;-76
2021/11/06 04:48:59;;;;;;;40.75;26.50;;;;;;;3.89;100.00;102668.38;5063902;28;20413;-77
2021/11/06 04:51:24;;;;;;;41.38;27.13;;;;;;;3.82;100.00;102677.56;5064551;28;20019;-73
2021/11/06 04:53:49;;;;;;;44.58;28.17;;;;;;;3.79;100.00;102671.25;5062442;28;20090;-76
2021/11/06 04:56:15;;;;;;;41.60;26.95;;;;;;;3.75;100.00;102675.38;5065492;28;20104;-77
2021/11/06 04:58:41;;;;;;;42.72;27.63;;;;;;;3.72;100.00;102680.44;5062155;28;20033;-76
2021/11/06 05:01:06;;;;;;;42.85;27.83;;;;;;;3.64;100.00;102669.50;5064780;28;20040;-76
2021/11/06 05:03:32;;;;;;;42.13;27.63;;;;;;;3.66;100.00;102680.06;5063172;28;20456;-76
2021/11/06 05:05:57;;;;;;;40.92;26.60;;;;;;;3.67;100.00;102674.03;5063387;28;20409;-76
2021/11/06 05:08:22;;;;;;;42.88;27.00;;;;;;;3.70;100.00;102682.06;5064315;28;20467;-66
2021/11/06 05:10:48;;;;;;;40.45;26.58;;;;;;;3.67;100.00;102671.41;5061846;28;20104;-66
2021/11/06 05:13:14;;;;;;;40.90;26.38;;;;;;;3.67;100.00;102674.03;5065172;28;20085;-63
2021/11/06 05:15:39;;;;;;;42.40;27.50;;;;;;;3.61;100.00;102671.00;5061914;28;20021;-65
2021/11/06 05:18:05;;;;;;;42.03;26.58;;;;;;;3.59;100.00;102677.88;5064533;28;20517;-63
2021/11/06 05:20:32;;;;;;;40.97;26.90;;;;;;;3.56;100.00;102678.56;5063151;28;20036;-67
2021/11/06 05:22:57;;;;;;;44.67;27.60;;;;;;;3.51;100.00;102674.78;5062605;28;20087;-66
2021/11/06 05:25:23;;;;;;;40.85;26.33;;;;;;;3.54;100.00;102684.50;5063633;28;20100;-64
2021/11/06 05:27:49;;;;;;;40.80;25.92;;;;;;;3.63;100.00;102679.88;5061779;28;20051;-64
2021/11/06 05:30:14;;;;;;;38.88;25.20;;;;;;;3.69;100.00;102687.19;5065019;28;20039;-67
2021/11/06 05:32:40;;;;;;;38.60;25.10;;;;;;;3.72;100.00;102690.88;5061763;28;20025;-65
2021/11/06 05:35:07;;;;;;;38.15;24.95;;;;;;;3.75;100.00;102690.19;5064114;28;20029;-66
2021/11/06 05:37:32;;;;;;;39.90;26.00;;;;;;;3.74;100.00;102689.28;5062387;28;20101;-66
2021/11/06 05:39:58;;;;;;;40.03;24.80;;;;;;;3.79;100.00;102684.34;5063008;28;20479;-65
2021/11/06 05:42:23;;;;;;;38.13;24.52;;;;;;;3.82;100.00;102688.03;5063746;28;20467;-67
2021/11/06 05:44:49;;;;;;;38.50;24.67;;;;;;;3.88;100.00;102686.59;5061441;28;20087;-65
2021/11/06 05:47:14;;;;;;;40.75;25.58;;;;;;;3.88;100.00;102681.38;5064950;28;20100;-65
2021/11/06 05:49:40;;;;;;;37.83;23.92;;;;;;;3.92;100.00;102675.53;5061234;28;20028;-65
2021/11/06 05:52:05;;;;;;;39.65;25.42;;;;;;;3.95;100.00;102675.72;5063546;28;20029;-63
2021/11/06 05:54:31;;;;;;;37.92;24.30;;;;;;;3.93;100.00;102672.06;5062788;28;20067;-65
2021/11/06 05:56:56;;;;;;;39.92;26.08;;;;;;;3.97;100.00;102672.34;5062481;28;20032;-66
2021/11/06 05:59:21;;;;;;;38.83;25.25;;;;;;;4.03;100.00;102666.59;5063778;28;20364;-69
2021/11/06 06:01:48;;;;;;;40.13;25.88;;;;;;;4.03;100.00;102663.97;5061257;28;20422;-74
2021/11/06 06:04:13;;;;;;;38.33;23.95;;;;;;;4.10;100.00;102660.00;5064226;28;20086;-77
2021/11/06 06:06:38;;;;;;;38.15;24.02;;;;;;;4.09;100.00;102655.59;5061443;28;20037;-77
2021/11/06 06:09:04;;;;;;;39.10;24.85;;;;;;;4.09;100.00;102652.97;5061891;28;20025;-77
2021/11/06 06:11:29;;;;;;;40.70;25.00;;;;;;;4.13;100.00;102647.09;5062552;28;20031;-77
2021/11/06 06:13:56;;;;;;;39.00;24.70;;;;;;;4.14;100.00;102660.28;5061916;28;20028;-73
2021/11/06 06:16:21;;;;;;;41.63;26.77;;;;;;;4.13;100.00;102662.81;5063595;28;20027;-77
2021/11/06 06:18:47;;;;;;;39.72;26.05;;;;;;;4.14;100.00;102657.66;5060759;28;20021;-71
2021/11/06 06:21:13;;;;;;;39.03;24.83;;;;;;;4.16;100.00;102655.13;5064625;28;20463;-75
2021/11/06 06:23:39;;;;;;;41.03;25.15;;;;;;;4.18;100.00;102651.81;5060843;28;20051;-75
2021/11/06 06:26:04;;;;;;;37.65;24.85;;;;;;;4.15;100.00;102662.09;5063278;28;20025;-71
2021/11/06 06:28:30;;;;;;;38.53;25.30;;;;;;;4.19;100.00;102664.09;5062574;28;20021;-71
2021/11/06 06:30:55;;;;;;;38.22;24.30;;;;;;;4.18;100.00;102672.75;5061774;28;20104;-71
2021/11/06 06:33:21;;;;;;;39.05;25.08;;;;;;;4.23;100.00;102669.50;5063661;28;20074;-71
2021/11/06 06:35:46;;;;;;;38.13;24.83;;;;;;;4.27;100.00;102669.78;5059824;28;20069;-61
2021/11/06 06:38:11;;;;;;;39.25;24.95;;;;;;;4.27;100.00;102674.13;5068006;28;20079;-61
2021/11/06 06:40:37;;;;;;;40.25;25.58;;;;;;;4.28;100.00;102673.28;5065077;28;20029;-61
2021/11/06 06:43:02;;;;;;;34.78;23.48;;;;;;;4.27;100.00;102675.00;5067051;28;20079;-61
2021/11/06 06:45:27;;;;;;;38.03;25.65;;;;;;;4.29;100.00;102680.34;5066472;28;20028;-61
2021/11/06 06:47:53;;;;;;;38.58;26.30;;;;;;;4.30;100.00;102676.91;5065310;28;20095;-61
2021/11/06 06:50:18;;;;;;;39.90;26.08;;;;;;;4.29;100.00;102678.63;5067647;28;20046;-62
2021/11/06 06:52:44;;;;;;;39.05;26.13;;;;;;;4.33;100.00;102682.34;5064518;28;20036;-61
2021/11/06 06:55:10;;;;;;;39.08;25.05;;;;;;;4.41;100.00;102693.25;5067329;28;20502;-65
2021/11/06 06:57:35;;;;;;;40.53;25.95;;;;;;;4.40;100.00;102680.97;5065410;28;20107;-61
2021/11/06 07:00:05;;;;;;;40.80;25.75;;;;;;;4.41;100.00;102686.28;5065946;28;20029;-61
2021/11/06 07:02:30;;;;;;;39.78;25.05;;;;;;;4.42;100.00;102682.84;5065739;28;20028;-61
2021/11/06 07:04:55;;;;;;;39.42;25.80;;;;;;;4.46;100.00;102695.31;5070243;28;20345;-62
2021/11/06 07:07:20;;;;;;;39.78;25.77;;;;;;;4.47;100.00;102697.16;5074317;28;20123;-61
2021/11/06 07:09:46;;;;;;;37.67;25.52;;;;;;;4.49;100.00;102695.50;5074511;28;20518;-65
2021/11/06 07:12:11;;;;;;;37.58;24.38;;;;;;;4.53;100.00;102689.63;5074473;28;20027;-60
2021/11/06 07:14:37;;;;;;;37.10;25.00;;;;;;;4.54;100.00;102693.16;5074551;28;20055;-61
2021/11/06 07:17:02;;;;;;;38.08;24.73;;;;;;;4.56;100.00;102685.38;5074378;28;20392;-61
2021/11/06 07:19:28;;;;;;;37.67;23.98;;;;;;;4.63;100.00;102687.53;5073987;28;20056;-61
2021/11/06 07:21:53;;;;;;;36.13;23.60;;;;;;;4.63;100.00;102692.78;5073633;28;20025;-62
2021/11/06 07:24:19;;;;;;;36.42;23.15;;;;;;;4.66;100.00;102693.88;5073100;28;20043;-64
2021/11/06 07:26:44;;;;;;;42.40;23.85;;;;;;;4.72;100.00;102698.56;5074018;28;20020;-62
2021/11/06 07:29:10;;;;;;;35.15;23.05;;;;;;;4.71;100.00;102697.66;5074308;28;20035;-62
2021/11/06 07:31:35;;;;;;;36.63;23.70;;;;;;;4.74;100.00;102701.28;5073817;28;20016;-62
2021/11/06 07:34:01;;;;;;;35.58;23.25;;;;;;;4.73;100.00;102695.13;5073861;28;20021;-62
2021/11/06 07:36:26;;;;;;;35.95;22.48;;;;;;;4.82;100.00;102708.78;5074098;28;20043;-62
2021/11/06 07:38:53;;;;;;;36.55;23.35;;;;;;;4.81;100.00;102711.31;5073982;28;20024;-61
2021/11/06 07:41:18;;;;;;;36.67;22.73;;;;;;;4.79;100.00;102703.34;5073713;28;20092;-62
2021/11/06 07:43:44;;;;;;;33.58;20.90;;;;;;;4.83;100.00;102702.69;5073856;28;20132;-62
2021/11/06 07:46:09;;;;;;;35.33;22.25;;;;;;;4.85;100.00;102695.84;5073883;28;20017;-62
2021/11/06 07:48:35;;;;;;;34.55;22.92;;;;;;;4.86;100.00;102695.03;5070906;28;20475;-61
2021/11/06 07:51:01;;;;;;;34.75;21.90;;;;;;;4.87;100.00;102709.91;5074328;28;20378;-61
2021/11/06 07:53:27;;;;;;;35.33;21.58;;;;;;;4.88;100.00;102706.50;5073068;28;20024;-60
2021/11/06 07:55:52;;;;;;;34.83;21.90;;;;;;;4.89;100.00;102708.31;5073570;28;20028;-61
2021/11/06 07:58:18;;;;;;;33.63;21.10;;;;;;;4.91;100.00;102703.16;5073620;28;20360;-61
2021/11/06 08:00:43;;;;;;;32.70;19.67;;;;;;;4.94;100.00;102705.06;5073486;28;20413;-60
2021/11/06 08:03:09;;;;;;;32.53;19.45;;;;;;;4.97;100.00;102698.25;5073849;28;20020;-76
2021/11/06 08:05:34;;;;;;;34.45;19.90;;;;;;;5.01;100.00;102702.84;5073376;28;20032;-88
2021/11/06 08:08:00;;;;;;;33.35;20.30;;;;;;;4.99;100.00;102708.81;5073489;28;20040;-86
2021/11/06 08:10:29;;;;;;;34.60;20.65;;;;;;;4.98;100.00;102707.94;5073958;28;20021;-79
2021/11/06 08:13:02;;;;;;;33.17;19.85;;;;;;;4.97;100.00;102715.72;5073307;28;20031;-84
2021/11/06 08:15:28;;;;;;;33.28;20.05;;;;;;;4.98;100.00;102714.88;5073230;28;20479;-82
2021/11/06 08:17:53;;;;;;;32.67;19.50;;;;;;;5.02;100.00;102707.31;5073138;28;20028;-81
2021/11/06 08:20:22;;;;;;;31.98;19.33;;;;;;;5.04;100.00;102691.66;5071894;28;20016;-83
2021/11/06 08:22:47;;;;;;;32.42;19.25;;;;;;;5.10;100.00;102691.06;5072881;28;20041;-78
2021/11/06 08:25:16;;;;;;;30.70;18.10;;;;;;;5.19;100.00;102694.22;5074378;28;20028;-77
2021/11/06 08:27:46;;;;;;;32.13;18.10;;;;;;;5.23;100.00;102694.47;5072004;28;20046;-81
2021/11/06 08:30:13;;;;;;;31.55;18.23;;;;;;;5.28;100.00;102696.47;5071524;28;20024;-80
2021/11/06 08:32:38;;;;;;;31.10;17.95;;;;;;;5.36;100.00;102689.94;5072677;28;20028;-84
2021/11/06 08:35:05;;;;;;;30.67;18.13;;;;;;;5.42;100.00;102685.00;5073357;28;20353;-80
2021/11/06 08:37:30;;;;;;;29.98;17.70;;;;;;;5.51;100.00;102682.88;5072948;28;20372;-81
2021/11/06 08:39:55;;;;;;;30.55;17.40;;;;;;;5.69;100.00;102687.31;5072739;28;20021;-67
2021/11/06 08:42:21;;;;;;;29.15;16.70;;;;;;;5.84;100.00;102685.53;5072376;28;20546;-61
2021/11/06 08:44:47;;;;;;;28.27;15.98;;;;;;;5.97;100.00;102675.66;5072568;28;20032;-65
2021/11/06 08:47:13;;;;;;;28.60;15.65;;;;;;;6.12;100.00;102671.25;5072707;28;20024;-63
2021/11/06 08:49:38;;;;;;;28.10;15.63;;;;;;;6.27;100.00;102669.38;5072716;28;20043;-66
2021/11/06 08:52:04;;;;;;;28.13;15.60;;;;;;;6.43;100.00;102665.81;5072477;28;20051;-63
2021/11/06 08:54:29;;;;;;;28.05;15.32;;;;;;;6.62;100.00;102665.00;5072301;28;20456;-61
2021/11/06 08:56:55;;;;;;;28.02;14.60;;;;;;;6.74;100.00;102661.19;5072805;28;20025;-70
2021/11/06 08:59:21;;;;;;;27.45;15.07;;;;;;;6.73;100.00;102662.91;5071966;28;20024;-64
2021/11/06 09:01:50;;;;;;;26.23;14.20;;;;;;;6.70;100.00;102662.78;5071728;28;20051;-67
2021/11/06 09:04:15;;;;;;;26.63;14.02;;;;;;;6.63;100.00;102661.56;5072766;28;20095;-62
2021/11/06 09:06:41;;;;;;;27.17;14.15;;;;;;;6.68;100.00;102660.88;5068670;28;20123;-73
2021/11/06 09:09:11;;;;;;;28.13;14.23;;;;;;;6.72;100.00;102665.47;5062659;28;20505;-72
2021/11/06 09:11:38;;;;;;;27.60;14.45;;;;;;;6.62;100.00;102654.50;5063587;28;20032;-75
2021/11/06 09:14:04;;;;;;;27.70;13.60;;;;;;;6.57;100.00;102663.88;5062689;28;20025;-73
2021/11/06 09:16:30;;;;;;;26.42;13.48;;;;;;;6.52;100.00;102662.75;5062927;28;20486;-64
2021/11/06 09:18:55;;;;;;;26.10;13.57;;;;;;;6.47;100.00;102659.00;5064307;28;20024;-64
2021/11/06 09:21:24;;;;;;;27.35;14.13;;;;;;;6.45;100.00;102658.00;5061400;28;20071;-62
2021/11/06 09:23:50;;;;;;;27.90;13.95;;;;;;;6.42;100.00;102661.41;5064498;28;20097;-79
2021/11/06 09:26:18;;;;;;;27.90;13.80;;;;;;;6.46;100.00;102662.44;5061527;28;20036;-81
2021/11/06 09:28:47;;;;;;;26.38;14.02;;;;;;;6.52;100.00;102660.13;5064530;28;20489;-81
2021/11/06 09:31:15;;;;;;;26.20;13.52;;;;;;;6.58;100.00;102652.56;5061921;28;20046;-82
2021/11/06 09:33:42;;;;;;;24.50;13.00;;;;;;;6.74;100.00;102650.66;5064127;28;20024;-80
2021/11/06 09:36:09;;;;;;;26.38;13.55;;;;;;;6.89;100.00;102663.69;5062307;28;20498;-81
2021/11/06 09:38:35;;;;;;;26.05;13.23;;;;;;;7.07;98.75;102663.66;5063215;28;20036;-82
2021/11/06 09:41:03;;;;;;;25.80;13.23;;;;;;;7.19;97.33;102671.22;5063295;28;20029;-81
2021/11/06 09:43:29;;;;;;;27.67;13.57;;;;;;;7.19;97.21;102671.22;5062216;28;20033;-76
2021/11/06 09:45:58;;;;;;;25.58;13.43;;;;;;;7.25;98.73;102674.13;5064023;28;20158;-82
2021/11/06 09:48:24;;;;;;;24.33;12.43;;;;;;;7.28;96.38;102675.19;5061556;28;20032;-82
2021/11/06 09:50:51;;;;;;;25.83;12.50;;;;;;;7.30;95.97;102672.63;5064401;28;20025;-82
2021/11/06 09:53:18;;;;;;;23.90;12.20;;;;;;;7.35;96.85;102668.47;5063266;28;20041;-80
2021/11/06 09:55:43;;;;;;;25.73;12.77;;;;;;;7.43;94.63;102672.38;5061287;28;20053;-76
2021/11/06 09:58:09;;;;;;;24.75;12.40;;;;;;;7.53;95.04;102657.00;5063676;28;20132;-78
2021/11/06 10:00:35;;;;;;;26.70;12.55;;;;;;;7.64;94.44;102655.75;5062266;28;20107;-62
2021/11/06 10:03:01;;;;;;;25.13;11.98;;;;;;;7.63;92.50;102651.31;5062391;28;20480;-62
2021/11/06 10:05:46;;;;;;;24.60;12.18;;;;;;;7.63;95.06;102662.75;5063241;28;20043;-62
2021/11/06 10:08:25;;;;;;;25.63;12.23;;;;;;;7.84;93.69;102651.38;5063532;28;20616;-69
2021/11/06 10:10:53;;;;;;;25.50;11.95;;;;;;;8.07;93.88;102662.94;5060715;28;20470;-71
2021/11/06 10:13:20;;;;;;;23.20;10.30;;;;;;;8.34;87.66;102660.59;5060755;28;20025;-65
2021/11/06 10:15:48;;;;;;;25.70;12.07;;;;;;;8.54;88.54;102665.81;5064408;28;20043;-68
2021/11/06 10:18:22;;;;;;;23.90;11.00;;;;;;;8.89;86.77;102658.47;5061038;28;20048;-64
2021/11/06 10:21:07;;;;;;;23.83;10.85;;;;;;;8.92;85.90;102655.94;5060651;28;20071;-65
2021/11/06 10:23:36;;;;;;;24.40;11.05;;;;;;;8.97;86.03;102662.31;5062062;28;20040;-63
2021/11/06 10:26:19;;;;;;;23.73;10.77;;;;;;;9.08;86.56;102663.63;5063048;28;20025;-65
2021/11/06 10:28:52;;;;;;;23.83;10.68;;;;;;;9.10;85.42;102665.41;5064110;28;20035;-66
2021/11/06 10:31:17;;;;;;;;;;;;;;;9.11;86.55;102656.69;5061632;28;20041;-63
2021/11/06 10:33:46;;;;;;;23.48;10.20;;;;;;;8.95;85.29;102658.69;5063602;28;19920;-63
2021/11/06 10:36:19;;;;;;;23.02;10.80;;;;;;;8.86;86.97;102663.63;5060829;28;21889;-64
2021/11/06 10:39:15;;;;;;;23.45;10.63;;;;;;;8.89;84.76;102648.78;5060496;28;20036;-65
2021/11/06 10:41:42;;;;;;;23.95;11.27;;;;;;;8.99;86.61;102649.19;5062879;28;20483;-65
2021/11/06 10:44:08;;;;;;;23.65;10.73;;;;;;;9.11;85.54;102646.13;5061188;28;20483;-62
2021/11/06 10:46:35;;;;;;;23.30;10.38;;;;;;;9.11;84.69;102638.22;5061684;28;20021;-65
2021/11/06 10:49:00;;;;;;;24.63;11.02;;;;;;;9.02;83.06;102642.28;5062714;28;20029;-66
2021/11/06 10:51:27;;;;;;;23.40;10.32;;;;;;;8.96;84.43;102639.41;5061151;28;20364;-64
2021/11/06 10:54:00;;;;;;;25.42;11.63;;;;;;;8.89;85.92;102621.53;5063448;28;20422;-64
2021/11/06 10:56:33;;;;;;;;;;;;;;;8.99;85.11;102620.16;5061358;28;20022;-64
2021/11/06 10:59:09;;;;;;;;;;;;;;;9.06;85.47;102609.91;5063123;28;19913;-66
2021/11/06 11:01:57;;;;;;;23.63;11.35;;;;;;;8.87;87.19;102610.03;5062485;28;19913;-65
2021/11/06 11:04:24;;;;;;;23.27;11.52;;;;;;;8.92;87.73;102611.09;5060271;28;20033;-63
2021/11/06 11:06:51;;;;;;;24.25;11.77;;;;;;;8.90;87.05;102607.50;5063654;28;20017;-65
2021/11/06 11:09:22;;;;;;;23.80;11.98;;;;;;;8.89;87.04;102613.63;5060165;28;20387;-66